Time;durP1;ratioP1;P1;durP2;ratioP2;P2;SDS_P1;SDS_P2;PMS_P1;PMS_P2;Temp;Humidity;BMP_temperature;BMP_pressure;BME280_temperature;BME280_humidity;BME280_pressure;Samples;Min_cycle;Max_cycle;Signal;HPM_P1;HPM_P2
2022/10/17 00:00:01;;;;;;;21.33;8.70;;;;;;;;;;5076287;28;20064;-70
2022/10/17 00:02:27;;;;;;;19.23;9.50;;;;;;;;;;5076813;28;20076;-70
2022/10/17 00:04:53;;;;;;;18.67;8.13;;;;;;;;;;5076842;28;20116;-70
2022/10/17 00:07:19;;;;;;;15.10;8.50;;;;;;;;;;5076272;28;20051;-70
2022/10/17 00:09:45;;;;;;;20.05;9.07;;;;;;;;;;5074121;28;20442;-70
2022/10/17 00:12:11;;;;;;;18.90;9.38;;;;;;;;;;5076574;28;20043;-70
2022/10/17 00:14:37;;;;;;;18.75;9.38;;;;;;;;;;5076029;28;20067;-70
2022/10/17 00:17:04;;;;;;;17.30;9.48;;;;;;;;;;5076323;28;20072;-71
2022/10/17 00:19:30;;;;;;;15.73;8.73;;;;;;;;;;5076232;28;20079;-71
2022/10/17 00:21:56;;;;;;;19.95;9.05;;;;;;;;;;5076891;28;20093;-70
2022/10/17 00:24:22;;;;;;;15.18;9.77;;;;;;;;;;5075851;28;20076;-70
2022/10/17 00:26:48;;;;;;;16.85;9.30;;;;;;;;;;5076431;28;20166;-70
2022/10/17 00:29:14;;;;;;;13.50;9.23;;;;;;;;;;5075943;28;20094;-70
2022/10/17 00:31:40;;;;;;;19.98;8.45;;;;;;;;;;5076137;28;20064;-70
2022/10/17 00:34:06;;;;;;;16.05;9.13;;;;;;;;;;5075774;28;20060;-70
2022/10/17 00:36:33;;;;;;;18.58;9.00;;;;;;;;;;5076022;28;20539;-70
2022/10/17 00:38:59;;;;;;;19.77;9.68;;;;;;;;;;5075939;28;20569;-70
2022/10/17 00:41:28;;;;;;;15.68;10.15;;;;;;;;;;5075915;28;20040;-70
2022/10/17 00:43:56;;;;;;;18.35;9.15;;;;;;;;;;5075785;28;20044;-70
2022/10/17 00:46:23;;;;;;;23.10;11.20;;;;;;;;;;5076127;28;20139;-70
2022/10/17 00:48:50;;;;;;;23.38;11.25;;;;;;;;;;5075883;28;20395;-70
2022/10/17 00:51:18;;;;;;;21.60;11.07;;;;;;;;;;5075732;28;20045;-70
2022/10/17 00:53:45;;;;;;;21.55;10.57;;;;;;;;;;5075964;28;20036;-70
2022/10/17 00:56:11;;;;;;;18.40;10.43;;;;;;;;;;5075657;28;20040;-70
2022/10/17 00:58:37;;;;;;;19.17;10.02;;;;;;;;;;5075603;28;20041;-70
2022/10/17 01:01:03;;;;;;;18.90;10.32;;;;;;;;;;5075526;28;20044;-70
2022/10/17 01:03:29;;;;;;;20.92;10.20;;;;;;;;;;5075277;28;20044;-70
2022/10/17 01:05:56;;;;;;;15.30;9.65;;;;;;;;;;5075374;28;20141;-70
2022/10/17 01:08:22;;;;;;;17.42;8.63;;;;;;;;;;5075666;28;20046;-70
2022/10/17 01:11:00;;;;;;;17.27;7.93;;;;;;;;;;5075039;28;20047;-70
2022/10/17 01:13:49;;;;;;;18.00;8.23;;;;;;;;;;5075390;28;20036;-70
2022/10/17 01:16:22;;;;;;;18.25;9.27;;;;;;;;;;5072191;28;20044;-70
2022/10/17 01:19:00;;;;;;;18.85;10.27;;;;;;;;;;5075306;28;20033;-70
2022/10/17 01:21:27;;;;;;;14.88;9.15;;;;;;;;;;5074790;28;20360;-70
2022/10/17 01:24:11;;;;;;;14.48;9.10;;;;;;;;;;5075035;28;20045;-70
2022/10/17 01:26:56;;;;;;;19.50;9.68;;;;;;;;;;5074675;28;20153;-70
2022/10/17 01:29:33;;;;;;;18.88;10.65;;;;;;;;;;5074554;28;20063;-70
2022/10/17 01:32:22;;;;;;;17.88;11.48;;;;;;;;;;5074820;28;20040;-70
2022/10/17 01:34:48;;;;;;;20.73;9.00;;;;;;;;;;5071543;28;20088;-70
2022/10/17 01:37:19;;;;;;;19.50;10.15;;;;;;;;;;5075154;28;20048;-70
2022/10/17 01:39:45;;;;;;;;;;;;;;;;;;5075312;28;20098;-70
2022/10/17 01:42:13;;;;;;;22.30;9.95;;;;;;;;;;5074859;28;19909;-70
2022/10/17 01:44:54;;;;;;;21.13;10.05;;;;;;;;;;5075004;28;20052;-70
2022/10/17 01:47:22;;;;;;;17.38;7.90;;;;;;;;;;5075503;28;20048;-70
2022/10/17 01:49:50;;;;;;;16.95;9.98;;;;;;;;;;5074870;28;20549;-70
2022/10/17 01:52:27;;;;;;;16.05;8.38;;;;;;;;;;5074708;28;20036;-70
2022/10/17 01:54:55;;;;;;;21.70;9.20;;;;;;;;;;5074916;28;20049;-70
2022/10/17 01:57:33;;;;;;;15.10;8.50;;;;;;;;;;5075675;28;20125;-70
2022/10/17 02:00:00;;;;;;;18.92;9.00;;;;;;;;;;5074518;28;20048;-70
2022/10/17 02:02:26;;;;;;;15.27;8.85;;;;;;;;;;5074893;28;20098;-70
2022/10/17 02:04:54;;;;;;;13.38;7.65;;;;;;;;;;5074846;28;20036;-70
2022/10/17 02:07:21;;;;;;;15.95;9.07;;;;;;;;;;5074738;28;20044;-70
2022/10/17 02:09:47;;;;;;;14.48;7.80;;;;;;;;;;5074694;28;20487;-70
2022/10/17 02:12:18;;;;;;;16.58;8.10;;;;;;;;;;5075063;28;20040;-70
2022/10/17 02:14:51;;;;;;;14.07;7.72;;;;;;;;;;5074391;28;20052;-70
2022/10/17 02:17:26;;;;;;;12.13;6.93;;;;;;;;;;5074738;28;20098;-70
2022/10/17 02:20:07;;;;;;;14.43;8.25;;;;;;;;;;5074434;28;20051;-70
2022/10/17 02:22:37;;;;;;;8.55;6.35;;;;;;;;;;5074739;28;20044;-70
2022/10/17 02:25:17;;;;;;;10.77;7.35;;;;;;;;;;5074360;28;20119;-70
2022/10/17 02:27:46;;;;;;;8.57;6.60;;;;;;;;;;5074449;28;20057;-70
2022/10/17 02:30:13;;;;;;;15.23;6.97;;;;;;;;;;5074638;28;20032;-70
2022/10/17 02:32:59;;;;;;;16.02;7.53;;;;;;;;;;5076821;28;20119;-70
2022/10/17 02:35:27;;;;;;;13.23;6.40;;;;;;;;;;5078288;28;20036;-70
2022/10/17 02:37:53;;;;;;;12.63;6.05;;;;;;;;;;5079175;28;20068;-70
2022/10/17 02:40:21;;;;;;;14.57;6.90;;;;;;;;;;5078564;28;20068;-70
2022/10/17 02:42:49;;;;;;;13.20;6.20;;;;;;;;;;5078411;28;20051;-70
2022/10/17 02:45:15;;;;;;;13.98;6.25;;;;;;;;;;5078483;28;20043;-70
2022/10/17 02:47:47;;;;;;;17.60;7.15;;;;;;;;;;5078317;28;20475;-70
2022/10/17 02:50:13;;;;;;;12.82;6.63;;;;;;;;;;5078442;28;20054;-70
2022/10/17 02:52:44;;;;;;;13.57;6.03;;;;;;;;;;5078648;28;20116;-70
2022/10/17 02:55:15;;;;;;;13.05;6.30;;;;;;;;;;5078105;28;20040;-70
2022/10/17 02:58:01;;;;;;;13.40;7.38;;;;;;;;;;5078583;28;20044;-70
2022/10/17 03:00:28;;;;;;;9.15;5.80;;;;;;;;;;5066589;28;20044;-70
2022/10/17 03:02:54;;;;;;;13.32;7.00;;;;;;;;;;5078258;28;20584;-70
2022/10/17 03:05:27;;;;;;;10.27;6.28;;;;;;;;;;5077728;28;20032;-70
2022/10/17 03:07:54;;;;;;;13.57;5.88;;;;;;;;;;5078256;28;20495;-70
2022/10/17 03:10:21;;;;;;;9.50;5.85;;;;;;;;;;5077955;28;20045;-70
2022/10/17 03:12:47;;;;;;;10.45;5.93;;;;;;;;;;5078097;28;20052;-70
2022/10/17 03:15:13;;;;;;;9.50;5.30;;;;;;;;;;5077910;28;20090;-70
2022/10/17 03:17:40;;;;;;;14.48;6.00;;;;;;;;;;5077829;28;20131;-70
2022/10/17 03:20:06;;;;;;;8.73;6.18;;;;;;;;;;5077491;28;20487;-70
2022/10/17 03:22:32;;;;;;;15.05;6.65;;;;;;;;;;5077795;28;20040;-70
2022/10/17 03:24:59;;;;;;;9.23;5.75;;;;;;;;;;5077743;28;20144;-70
2022/10/17 03:27:25;;;;;;;18.95;6.80;;;;;;;;;;5077239;28;20427;-70
2022/10/17 03:29:51;;;;;;;11.15;5.80;;;;;;;;;;5077476;28;20045;-70
2022/10/17 03:32:17;;;;;;;10.88;6.82;;;;;;;;;;5078180;28;20041;-70
2022/10/17 03:34:43;;;;;;;13.00;6.80;;;;;;;;;;5077164;28;20052;-70
2022/10/17 03:37:09;;;;;;;14.57;6.47;;;;;;;;;;5077446;28;20067;-70
2022/10/17 03:39:35;;;;;;;15.43;7.05;;;;;;;;;;5077254;28;20048;-70
2022/10/17 03:42:02;;;;;;;10.55;5.85;;;;;;;;;;5076814;28;20573;-70
2022/10/17 03:44:28;;;;;;;11.38;6.15;;;;;;;;;;5076333;28;20048;-70
2022/10/17 03:46:54;;;;;;;11.27;6.43;;;;;;;;;;5077486;28;20198;-70
2022/10/17 03:49:20;;;;;;;15.18;6.15;;;;;;;;;;5075989;28;20048;-70
2022/10/17 03:51:46;;;;;;;16.00;6.57;;;;;;;;;;5075694;28;20043;-70
2022/10/17 03:54:12;;;;;;;11.63;6.38;;;;;;;;;;5077219;28;20048;-70
2022/10/17 03:56:39;;;;;;;11.18;6.10;;;;;;;;;;5075495;28;20045;-70
2022/10/17 03:59:05;;;;;;;11.38;6.72;;;;;;;;;;5075521;28;20051;-70
2022/10/17 04:01:31;;;;;;;13.20;7.15;;;;;;;;;;5075931;28;20040;-70
2022/10/17 04:03:57;;;;;;;12.07;6.88;;;;;;;;;;5079712;28;20043;-70
2022/10/17 04:06:23;;;;;;;11.85;6.70;;;;;;;;;;5094741;28;20059;-70
2022/10/17 04:08:49;;;;;;;11.75;7.05;;;;;;;;;;5073430;28;20125;-70
2022/10/17 04:11:17;;;;;;;11.10;6.88;;;;;;;;;;5082329;28;20089;-70
2022/10/17 04:13:44;;;;;;;8.77;6.85;;;;;;;;;;5086166;28;20044;-70
2022/10/17 04:16:12;;;;;;;9.60;6.93;;;;;;;;;;5087406;28;20176;-70
2022/10/17 04:18:38;;;;;;;13.50;6.93;;;;;;;;;;5080890;28;20045;-70
2022/10/17 04:21:06;;;;;;;17.58;6.97;;;;;;;;;;5075385;28;20044;-70
2022/10/17 04:23:32;;;;;;;14.32;7.15;;;;;;;;;;5075359;28;20040;-70
2022/10/17 04:25:58;;;;;;;12.52;7.50;;;;;;;;;;5075138;28;20055;-70
2022/10/17 04:28:25;;;;;;;13.63;7.55;;;;;;;;;;5075063;28;20094;-70
2022/10/17 04:31:02;;;;;;;12.43;7.75;;;;;;;;;;5075427;28;20032;-70
2022/10/17 04:33:28;;;;;;;15.32;8.25;;;;;;;;;;5075356;28;20056;-72
2022/10/17 04:35:55;;;;;;;13.75;7.93;;;;;;;;;;5075964;28;20050;-73
2022/10/17 04:38:21;;;;;;;18.35;8.68;;;;;;;;;;5076538;28;20040;-72
2022/10/17 04:40:47;;;;;;;13.70;7.55;;;;;;;;;;5076276;28;20039;-72
2022/10/17 04:43:13;;;;;;;17.92;8.13;;;;;;;;;;5075287;28;20122;-72
2022/10/17 04:45:39;;;;;;;14.38;8.23;;;;;;;;;;5076026;28;20039;-72
2022/10/17 04:48:05;;;;;;;24.63;8.95;;;;;;;;;;5083271;28;20048;-72
2022/10/17 04:50:31;;;;;;;16.02;8.18;;;;;;;;;;5093863;28;20040;-71
2022/10/17 04:52:57;;;;;;;15.10;8.57;;;;;;;;;;5096132;28;20047;-71
2022/10/17 04:55:24;;;;;;;18.17;8.43;;;;;;;;;;5095048;28;20040;-72
2022/10/17 04:57:51;;;;;;;17.73;8.90;;;;;;;;;;5094665;28;20047;-72
2022/10/17 05:00:17;;;;;;;12.20;7.57;;;;;;;;;;5077440;28;20028;-72
2022/10/17 05:02:43;;;;;;;18.42;9.20;;;;;;;;;;5066664;28;20056;-72
2022/10/17 05:05:09;;;;;;;15.88;8.38;;;;;;;;;;5082925;28;20514;-72
2022/10/17 05:07:39;;;;;;;17.50;8.02;;;;;;;;;;5086303;28;20072;-72
2022/10/17 05:10:06;;;;;;;15.98;8.45;;;;;;;;;;5084072;28;20047;-72
2022/10/17 05:12:32;;;;;;;13.50;8.13;;;;;;;;;;5074835;28;20052;-72
2022/10/17 05:14:58;;;;;;;14.23;7.18;;;;;;;;;;5081595;28;20040;-72
2022/10/17 05:17:24;;;;;;;12.10;6.90;;;;;;;;;;5095522;28;20087;-72
2022/10/17 05:19:50;;;;;;;12.35;7.03;;;;;;;;;;5094306;28;20032;-72
2022/10/17 05:22:17;;;;;;;13.25;6.55;;;;;;;;;;5075818;28;20526;-72
2022/10/17 05:24:43;;;;;;;14.48;6.25;;;;;;;;;;5095767;28;20376;-72
2022/10/17 05:27:09;;;;;;;11.57;6.65;;;;;;;;;;5075031;28;20055;-71
2022/10/17 05:29:35;;;;;;;11.93;6.97;;;;;;;;;;5079099;28;20474;-72
2022/10/17 05:32:01;;;;;;;11.10;6.72;;;;;;;;;;5085961;28;20041;-72
2022/10/17 05:34:27;;;;;;;20.70;8.30;;;;;;;;;;5080534;28;20056;-74
2022/10/17 05:36:53;;;;;;;15.57;8.93;;;;;;;;;;5090898;28;20046;-75
2022/10/17 05:39:19;;;;;;;13.98;8.45;;;;;;;;;;5073871;28;20055;-74
2022/10/17 05:41:46;;;;;;;16.25;9.73;;;;;;;;;;5076954;28;20169;-74
2022/10/17 05:44:12;;;;;;;17.27;9.25;;;;;;;;;;5084224;28;20166;-74
2022/10/17 05:46:38;;;;;;;18.85;10.70;;;;;;;;;;5075153;28;20506;-73
2022/10/17 05:49:04;;;;;;;21.90;11.63;;;;;;;;;;5073714;28;20040;-74
2022/10/17 05:51:32;;;;;;;18.23;12.50;;;;;;;;;;5074856;28;20033;-73
2022/10/17 05:53:58;;;;;;;18.55;11.65;;;;;;;;;;5092831;28;20039;-73
2022/10/17 05:56:24;;;;;;;14.65;10.43;;;;;;;;;;5074228;28;20045;-74
2022/10/17 05:58:51;;;;;;;16.98;10.73;;;;;;;;;;5073189;28;20531;-74
2022/10/17 06:01:17;;;;;;;17.25;11.55;;;;;;;;;;5072069;28;20033;-74
2022/10/17 06:03:43;;;;;;;20.50;11.30;;;;;;;;;;5079454;28;20044;-74
2022/10/17 06:06:11;;;;;;;19.25;10.95;;;;;;;;;;5073146;28;20122;-74
2022/10/17 06:08:37;;;;;;;19.55;10.90;;;;;;;;;;5091818;28;20039;-73
2022/10/17 06:11:03;;;;;;;17.17;10.75;;;;;;;;;;5094716;28;20109;-74
2022/10/17 06:13:30;;;;;;;19.95;10.85;;;;;;;;;;5091042;28;20048;-73
2022/10/17 06:15:56;;;;;;;21.27;10.75;;;;;;;;;;5081261;28;20047;-74
2022/10/17 06:18:22;;;;;;;20.92;11.88;;;;;;;;;;5094224;28;20155;-74
2022/10/17 06:20:49;;;;;;;22.25;11.85;;;;;;;;;;5094105;28;20044;-74
2022/10/17 06:23:15;;;;;;;21.13;12.23;;;;;;;;;;5089811;28;20040;-74
2022/10/17 06:25:41;;;;;;;19.23;11.38;;;;;;;;;;5082560;28;20480;-74
2022/10/17 06:28:07;;;;;;;19.38;11.63;;;;;;;;;;5085560;28;20043;-74
2022/10/17 06:30:33;;;;;;;18.38;12.23;;;;;;;;;;5073708;28;20043;-74
2022/10/17 06:33:00;;;;;;;19.83;11.60;;;;;;;;;;5070349;28;20091;-75
2022/10/17 06:35:26;;;;;;;22.00;12.07;;;;;;;;;;5080652;28;20040;-74
2022/10/17 06:37:52;;;;;;;19.45;12.18;;;;;;;;;;5094323;28;20074;-74
2022/10/17 06:40:18;;;;;;;21.77;10.73;;;;;;;;;;5093673;28;20568;-74
2022/10/17 06:42:44;;;;;;;20.55;11.55;;;;;;;;;;5094517;28;20055;-74
2022/10/17 06:45:10;;;;;;;20.88;10.88;;;;;;;;;;5093750;28;20036;-74
2022/10/17 06:47:36;;;;;;;23.08;12.60;;;;;;;;;;5094423;28;20051;-74
2022/10/17 06:50:03;;;;;;;19.88;10.48;;;;;;;;;;5093808;28;20039;-74
2022/10/17 06:52:29;;;;;;;20.08;10.68;;;;;;;;;;5093659;28;20042;-74
2022/10/17 06:54:55;;;;;;;15.35;10.35;;;;;;;;;;5093984;28;20487;-74
2022/10/17 06:57:21;;;;;;;17.35;9.57;;;;;;;;;;5094240;28;20131;-74
2022/10/17 06:59:47;;;;;;;24.38;10.30;;;;;;;;;;5093498;28;20040;-74
2022/10/17 07:02:13;;;;;;;22.30;11.32;;;;;;;;;;5093910;28;20070;-74
2022/10/17 07:04:39;;;;;;;21.75;11.75;;;;;;;;;;5091421;28;20040;-74
2022/10/17 07:07:05;;;;;;;19.25;12.68;;;;;;;;;;5092979;28;20054;-74
2022/10/17 07:09:32;;;;;;;14.32;10.75;;;;;;;;;;5094351;28;20039;-74
2022/10/17 07:11:58;;;;;;;18.88;8.88;;;;;;;;;;5090011;28;20044;-74
2022/10/17 07:14:30;;;;;;;22.40;10.60;;;;;;;;;;5089687;28;20379;-74
2022/10/17 07:16:57;;;;;;;19.77;9.40;;;;;;;;;;5094309;28;20055;-74
2022/10/17 07:19:24;;;;;;;21.63;10.73;;;;;;;;;;5096382;28;20114;-74
2022/10/17 07:21:50;;;;;;;17.20;9.52;;;;;;;;;;5096941;28;20044;-74
2022/10/17 07:24:16;;;;;;;21.80;10.75;;;;;;;;;;5097187;28;20040;-74
2022/10/17 07:26:42;;;;;;;19.90;11.15;;;;;;;;;;5093577;28;20055;-74
2022/10/17 07:29:09;;;;;;;19.95;8.98;;;;;;;;;;5097181;28;20050;-74
2022/10/17 07:31:35;;;;;;;17.67;9.50;;;;;;;;;;5097247;28;20050;-74
2022/10/17 07:34:01;;;;;;;16.45;9.75;;;;;;;;;;5096993;28;20553;-74
2022/10/17 07:36:27;;;;;;;15.85;9.15;;;;;;;;;;5097272;28;20040;-73
2022/10/17 07:38:53;;;;;;;15.88;9.20;;;;;;;;;;5096810;28;20032;-74
2022/10/17 07:41:20;;;;;;;18.00;8.52;;;;;;;;;;5097181;28;20090;-74
2022/10/17 07:43:46;;;;;;;16.38;9.68;;;;;;;;;;5080740;28;20120;-74
2022/10/17 07:46:12;;;;;;;22.30;9.80;;;;;;;;;;5094404;28;20533;-74
2022/10/17 07:48:38;;;;;;;13.65;8.25;;;;;;;;;;5096737;28;20036;-73
2022/10/17 07:51:06;;;;;;;14.57;7.95;;;;;;;;;;5094916;28;20043;-74
2022/10/17 07:53:34;;;;;;;17.63;9.80;;;;;;;;;;5087930;28;20062;-74
2022/10/17 07:56:03;;;;;;;10.57;7.88;;;;;;;;;;5096312;28;20040;-74
2022/10/17 07:58:30;;;;;;;14.35;8.73;;;;;;;;;;5096604;28;20047;-74
2022/10/17 08:00:59;;;;;;;17.65;9.07;;;;;;;;;;5096969;28;20043;-74
2022/10/17 08:03:26;;;;;;;18.77;10.50;;;;;;;;;;5096283;28;20047;-74
2022/10/17 08:05:52;;;;;;;20.33;12.00;;;;;;;;;;5096409;28;20055;-74
2022/10/17 08:08:18;;;;;;;16.55;10.10;;;;;;;;;;5096510;28;20072;-74
2022/10/17 08:10:44;;;;;;;17.95;10.20;;;;;;;;;;5096168;28;20054;-74
2022/10/17 08:13:10;;;;;;;19.67;9.38;;;;;;;;;;5097007;28;20040;-74
2022/10/17 08:15:37;;;;;;;15.75;10.32;;;;;;;;;;5096741;28;20036;-74
2022/10/17 08:18:03;;;;;;;21.10;10.85;;;;;;;;;;5095975;28;20097;-74
2022/10/17 08:20:30;;;;;;;22.00;10.85;;;;;;;;;;5096632;28;20040;-74
2022/10/17 08:22:56;;;;;;;15.27;10.30;;;;;;;;;;5097220;28;20089;-74
2022/10/17 08:25:22;;;;;;;25.83;11.75;;;;;;;;;;5095931;28;20553;-74
2022/10/17 08:27:48;;;;;;;21.13;10.88;;;;;;;;;;5095407;28;20048;-74
2022/10/17 08:30:15;;;;;;;21.63;10.50;;;;;;;;;;5093819;28;20119;-74
2022/10/17 08:32:41;;;;;;;21.00;11.05;;;;;;;;;;5090951;28;20048;-74
2022/10/17 08:35:07;;;;;;;19.33;11.45;;;;;;;;;;5096295;28;20032;-73
2022/10/17 08:37:34;;;;;;;16.77;10.07;;;;;;;;;;5095398;28;20050;-74
2022/10/17 08:40:00;;;;;;;17.08;10.23;;;;;;;;;;5096194;28;20043;-74
2022/10/17 08:42:34;;;;;;;20.70;10.32;;;;;;;;;;5096132;28;20101;-74
2022/10/17 08:45:11;;;;;;;19.02;11.98;;;;;;;;;;5095625;28;20036;-73
2022/10/17 08:47:48;;;;;;;22.10;10.82;;;;;;;;;;5095834;28;20048;-74
2022/10/17 08:50:17;;;;;;;21.77;12.50;;;;;;;;;;5094106;28;20048;-74
2022/10/17 08:53:13;;;;;;;19.63;9.80;;;;;;;;;;5096783;28;20051;-73
2022/10/17 08:55:41;;;;;;;23.10;11.73;;;;;;;;;;5058693;28;20045;-74
2022/10/17 08:58:12;;;;;;;19.15;11.10;;;;;;;;;;5096529;28;20040;-73
2022/10/17 09:00:39;;;;;;;15.25;10.15;;;;;;;;;;5095389;28;20503;-74
2022/10/17 09:03:14;;;;;;;22.35;9.35;;;;;;;;;;5094420;28;20051;-73
2022/10/17 09:05:51;;;;;;;17.80;9.50;;;;;;;;;;5096628;28;20529;-74
2022/10/17 09:08:24;;;;;;;17.70;8.70;;;;;;;;;;5095381;28;20036;-73
2022/10/17 09:10:50;;;;;;;16.60;8.15;;;;;;;;;;5095741;28;20131;-74
2022/10/17 09:13:17;;;;;;;15.88;7.82;;;;;;;;;;5095600;28;20128;-74
2022/10/17 09:15:43;;;;;;;20.17;7.88;;;;;;;;;;5093142;28;20044;-74
2022/10/17 09:18:12;;;;;;;12.10;7.22;;;;;;;;;;5094596;28;20036;-74
2022/10/17 09:20:47;;;;;;;14.95;8.75;;;;;;;;;;5094982;28;20136;-74
2022/10/17 09:23:16;;;;;;;13.77;8.40;;;;;;;;;;5095512;28;20047;-74
2022/10/17 09:25:44;;;;;;;19.30;9.02;;;;;;;;;;5095180;28;20048;-74
2022/10/17 09:28:10;;;;;;;13.52;9.10;;;;;;;;;;5095397;28;20043;-74
2022/10/17 09:30:41;;;;;;;23.00;8.82;;;;;;;;;;5094860;28;20044;-74
2022/10/17 09:33:21;;;;;;;18.30;9.50;;;;;;;;;;5095642;28;20117;-74
2022/10/17 09:35:48;;;;;;;20.23;9.95;;;;;;;;;;5094838;28;20498;-74
2022/10/17 09:38:25;;;;;;;24.80;10.27;;;;;;;;;;5095187;28;20074;-74
2022/10/17 09:40:54;;;;;;;18.40;10.80;;;;;;;;;;5094887;28;20111;-74
2022/10/17 09:43:23;;;;;;;16.42;10.60;;;;;;;;;;5088763;28;20128;-73
2022/10/17 09:45:59;;;;;;;18.00;9.50;;;;;;;;;;5085963;28;20040;-74
2022/10/17 09:48:31;;;;;;;18.48;9.32;;;;;;;;;;5095004;28;20055;-74
2022/10/17 09:50:57;;;;;;;22.25;10.48;;;;;;;;;;5055102;28;20511;-73
2022/10/17 09:53:27;;;;;;;18.75;9.18;;;;;;;;;;5055342;28;20041;-73
2022/10/17 09:55:57;;;;;;;20.02;9.55;;;;;;;;;;5059342;28;20037;-73
2022/10/17 09:58:24;;;;;;;15.18;8.82;;;;;;;;;;5075069;28;20045;-74
2022/10/17 10:00:50;;;;;;;21.48;9.75;;;;;;;;;;5090236;28;20113;-73
2022/10/17 10:03:18;;;;;;;12.90;8.20;;;;;;;;;;5094269;28;20118;-74
2022/10/17 10:05:59;;;;;;;11.73;8.35;;;;;;;;;;5095460;28;20040;-74
2022/10/17 10:08:27;;;;;;;18.13;9.82;;;;;;;;;;5095118;28;20051;-74
2022/10/17 10:11:02;;;;;;;20.88;8.35;;;;;;;;;;5094831;28;20036;-74
2022/10/17 10:13:28;;;;;;;20.70;8.57;;;;;;;;;;5094368;28;20036;-74
2022/10/17 10:16:11;;;;;;;17.30;9.38;;;;;;;;;;5093905;28;20039;-74
2022/10/17 10:18:38;;;;;;;18.40;10.35;;;;;;;;;;5094820;28;20494;-73
2022/10/17 10:21:04;;;;;;;17.58;9.73;;;;;;;;;;5094927;28;20075;-73
2022/10/17 10:23:30;;;;;;;20.30;10.40;;;;;;;;;;5094415;28;20115;-73
2022/10/17 10:26:01;;;;;;;21.13;9.73;;;;;;;;;;5094563;28;20047;-74
2022/10/17 10:28:27;;;;;;;;;;;;;;;;;;5087393;28;20090;-74
2022/10/17 10:30:54;;;;;;;17.52;9.30;;;;;;;;;;5094552;28;20334;-74
2022/10/17 10:33:21;;;;;;;21.38;9.32;;;;;;;;;;5094290;28;20453;-74
2022/10/17 10:35:58;;;;;;;17.98;8.90;;;;;;;;;;5094449;28;20040;-74
2022/10/17 10:38:24;;;;;;;20.20;9.95;;;;;;;;;;5094406;28;20522;-74
2022/10/17 10:41:01;;;;;;;21.80;10.35;;;;;;;;;;5093856;28;20111;-74
2022/10/17 10:43:30;;;;;;;25.88;9.90;;;;;;;;;;5094801;28;20052;-76
2022/10/17 10:45:56;;;;;;;16.55;8.80;;;;;;;;;;5094038;28;20444;-73
2022/10/17 10:48:27;;;;;;;24.23;9.02;;;;;;;;;;5047576;28;20040;-73
2022/10/17 10:51:00;;;;;;;20.98;7.82;;;;;;;;;;5059237;28;20133;-73
2022/10/17 10:53:38;;;;;;;11.43;7.43;;;;;;;;;;5095520;28;20051;-73
2022/10/17 10:56:12;;;;;;;19.60;8.68;;;;;;;;;;5097617;28;20047;-73
2022/10/17 10:58:42;;;;;;;18.80;9.05;;;;;;;;;;5097829;28;20040;-73
2022/10/17 11:01:15;;;;;;;13.95;7.85;;;;;;;;;;5096742;28;20542;-73
2022/10/17 11:03:46;;;;;;;17.38;8.40;;;;;;;;;;5097383;28;20048;-73
2022/10/17 11:06:14;;;;;;;16.52;8.07;;;;;;;;;;5097640;28;20052;-73
2022/10/17 11:08:44;;;;;;;21.20;8.82;;;;;;;;;;5097415;28;20506;-73
2022/10/17 11:11:22;;;;;;;23.77;9.65;;;;;;;;;;5096617;28;20423;-73
2022/10/17 11:13:52;;;;;;;21.65;9.02;;;;;;;;;;5096711;28;20232;-73
2022/10/17 11:16:25;;;;;;;22.25;8.90;;;;;;;;;;5097010;28;20093;-73
2022/10/17 11:18:51;;;;;;;14.52;6.90;;;;;;;;;;5096634;28;20040;-73
2022/10/17 11:21:36;;;;;;;19.95;8.55;;;;;;;;;;5095947;28;20368;-73
2022/10/17 11:24:02;;;;;;;19.35;9.40;;;;;;;;;;5096715;28;20040;-73
2022/10/17 11:26:30;;;;;;;27.42;9.65;;;;;;;;;;5097135;28;20047;-73
2022/10/17 11:28:57;;;;;;;21.55;9.32;;;;;;;;;;5096238;28;20040;-73
2022/10/17 11:31:44;;;;;;;18.88;8.45;;;;;;;;;;5075260;28;20090;-73
2022/10/17 11:34:20;;;;;;;23.52;8.93;;;;;;;;;;5065346;28;21061;-73
2022/10/17 11:36:48;;;;;;;17.83;7.97;;;;;;;;;;5088002;28;20044;-74
2022/10/17 11:39:29;;;;;;;17.42;8.15;;;;;;;;;;5076096;28;20051;-72
2022/10/17 11:42:15;;;;;;;25.27;8.48;;;;;;;;;;5093950;28;20494;-72
2022/10/17 11:44:43;;;;;;;18.90;8.43;;;;;;;;;;5095707;28;20375;-73
2022/10/17 11:47:27;;;;;;;16.45;9.80;;;;;;;;;;5094016;28;20055;-73
2022/10/17 11:50:12;;;;;;;23.40;9.15;;;;;;;;;;5093587;28;20180;-73
2022/10/17 11:52:41;;;;;;;20.55;7.10;;;;;;;;;;5096063;28;20040;-72
2022/10/17 11:55:26;;;;;;;22.00;7.65;;;;;;;;;;5096047;28;20040;-73
2022/10/17 11:58:11;;;;;;;17.40;7.78;;;;;;;;;;5095724;28;20048;-72
2022/10/17 12:00:49;;;;;;;19.02;5.53;;;;;;;;;;5095368;28;20036;-73
2022/10/17 12:03:31;;;;;;;16.38;6.15;;;;;;;;;;5096496;28;20044;-73
2022/10/17 12:06:16;;;;;;;16.13;6.32;;;;;;;;;;5095750;28;20039;-73
2022/10/17 12:08:42;;;;;;;19.17;6.13;;;;;;;;;;5096448;28;20032;-73
2022/10/17 12:11:23;;;;;;;20.55;6.50;;;;;;;;;;5095417;28;20044;-73
2022/10/17 12:13:51;;;;;;;17.52;6.80;;;;;;;;;;5095445;28;20541;-73
2022/10/17 12:16:20;;;;;;;15.65;6.38;;;;;;;;;;5094955;28;20178;-73
2022/10/17 12:19:06;;;;;;;14.85;6.35;;;;;;;;;;5081093;28;20142;-73
2022/10/17 12:21:51;;;;;;;16.05;6.30;;;;;;;;;;5086092;28;20128;-73
2022/10/17 12:24:27;;;;;;;19.38;6.88;;;;;;;;;;5096264;28;20071;-73
2022/10/17 12:26:53;;;;;;;16.08;6.93;;;;;;;;;;5095519;28;20076;-73
2022/10/17 12:29:28;;;;;;;17.45;6.50;;;;;;;;;;5095626;28;20044;-73
2022/10/17 12:31:54;;;;;;;16.20;6.88;;;;;;;;;;5095060;28;20058;-73
2022/10/17 12:34:22;;;;;;;19.67;8.95;;;;;;;;;;5096207;28;20538;-72
2022/10/17 12:36:48;;;;;;;15.07;6.40;;;;;;;;;;5096370;28;20039;-73
2022/10/17 12:39:16;;;;;;;11.82;5.75;;;;;;;;;;5096443;28;20101;-73
2022/10/17 12:41:43;;;;;;;13.15;5.85;;;;;;;;;;5095965;28;20032;-73
2022/10/17 12:44:12;;;;;;;14.32;6.55;;;;;;;;;;5087584;28;20094;-73
2022/10/17 12:46:47;;;;;;;18.42;7.72;;;;;;;;;;5096373;28;20043;-73
2022/10/17 12:49:21;;;;;;;11.55;5.72;;;;;;;;;;5095440;28;20047;-72
2022/10/17 12:52:09;;;;;;;15.25;5.50;;;;;;;;;;5095750;28;20043;-73
2022/10/17 12:54:40;;;;;;;18.60;5.85;;;;;;;;;;5082585;28;20048;-72
2022/10/17 12:57:19;;;;;;;16.70;7.72;;;;;;;;;;5081807;28;20533;-72
2022/10/17 12:59:46;;;;;;;12.57;5.22;;;;;;;;;;5095573;28;20040;-73
2022/10/17 13:02:17;;;;;;;16.38;6.07;;;;;;;;;;5095181;28;20044;-73
2022/10/17 13:04:44;;;;;;;13.52;5.50;;;;;;;;;;5095374;28;20115;-73
2022/10/17 13:07:19;;;;;;;23.77;11.90;;;;;;;;;;5094664;28;20052;-73
2022/10/17 13:09:45;;;;;;;16.25;6.45;;;;;;;;;;5095689;28;20123;-73
2022/10/17 13:12:13;;;;;;;15.43;8.07;;;;;;;;;;5095254;28;20127;-73
2022/10/17 13:14:41;;;;;;;15.52;6.63;;;;;;;;;;5095494;28;20040;-73
2022/10/17 13:17:20;;;;;;;18.33;7.75;;;;;;;;;;5094042;28;20040;-73
2022/10/17 13:19:46;;;;;;;19.63;7.10;;;;;;;;;;5095762;28;20067;-73
2022/10/17 13:22:25;;;;;;;18.70;7.80;;;;;;;;;;5095509;28;20044;-73
2022/10/17 13:24:52;;;;;;;13.32;4.88;;;;;;;;;;5095157;28;20495;-73
2022/10/17 13:27:23;;;;;;;11.95;5.47;;;;;;;;;;5094382;28;20414;-73
2022/10/17 13:29:49;;;;;;;;;;;;;;;;;;5095722;28;20260;-72
2022/10/17 13:32:16;;;;;;;22.17;7.00;;;;;;;;;;5094756;28;20467;-73
2022/10/17 13:34:42;;;;;;;21.92;7.70;;;;;;;;;;5093492;28;20387;-73
2022/10/17 13:37:10;;;;;;;12.07;5.38;;;;;;;;;;5095355;28;20494;-73
2022/10/17 13:39:44;;;;;;;14.98;5.60;;;;;;;;;;5094880;28;20044;-73
2022/10/17 13:42:36;;;;;;;12.88;5.45;;;;;;;;;;5094306;28;20513;-73
2022/10/17 13:45:03;;;;;;;16.52;5.97;;;;;;;;;;5092737;28;20051;-72
2022/10/17 13:47:31;;;;;;;17.50;6.75;;;;;;;;;;5094400;28;20044;-72
2022/10/17 13:49:58;;;;;;;14.40;5.72;;;;;;;;;;5093708;28;20438;-72
2022/10/17 13:52:27;;;;;;;14.40;6.07;;;;;;;;;;5095471;28;20044;-72
2022/10/17 13:54:53;;;;;;;15.60;6.30;;;;;;;;;;5094966;28;20044;-72
2022/10/17 13:57:22;;;;;;;12.93;6.20;;;;;;;;;;5095043;28;20040;-73
2022/10/17 13:59:50;;;;;;;14.43;5.50;;;;;;;;;;5094439;28;20058;-72
2022/10/17 14:02:17;;;;;;;29.80;7.55;;;;;;;;;;5094979;28;20127;-73
2022/10/17 14:04:44;;;;;;;18.33;6.97;;;;;;;;;;5094540;28;20040;-72
2022/10/17 14:07:20;;;;;;;15.73;8.15;;;;;;;;;;5094396;28;20047;-73
2022/10/17 14:09:46;;;;;;;15.60;5.82;;;;;;;;;;5094531;28;20083;-73
2022/10/17 14:12:13;;;;;;;15.43;6.38;;;;;;;;;;5095176;28;20067;-72
2022/10/17 14:14:40;;;;;;;18.63;6.38;;;;;;;;;;5093659;28;20510;-72
2022/10/17 14:17:33;;;;;;;15.50;7.63;;;;;;;;;;5094644;28;20079;-72
2022/10/17 14:20:02;;;;;;;14.93;6.88;;;18.80;99.90;;;;;;5092049;28;20055;-72
2022/10/17 14:22:32;;;;;;;15.52;6.32;;;18.70;99.90;;;;;;5094371;28;20549;-73
2022/10/17 14:24:58;;;;;;;22.15;11.90;;;18.50;99.90;;;;;;5094284;28;20043;-73
2022/10/17 14:27:38;;;;;;;18.13;7.68;;;18.40;99.90;;;;;;5094814;28;20497;-73
2022/10/17 14:30:26;;;;;;;11.05;6.00;;;18.50;99.90;;;;;;5097856;28;20044;-72
2022/10/17 14:32:56;;;;;;;13.77;7.10;;;18.40;99.90;;;;;;5085733;28;20097;-73
2022/10/17 14:35:22;;;;;;;15.10;6.88;;;18.50;99.90;;;;;;5078352;28;20499;-73
2022/10/17 14:37:51;;;;;;;17.58;7.75;;;18.50;99.90;;;;;;5078521;28;20047;-73